Mexican Hat, Utah
Current Conditions -  °F | °C
As of 7:15 PM on Sunday 25 Jan 2015 (Local Time) from KBDG Reporting Station
Clear Clear  
Wind Chill: 46°   Ceiling: Unl
Heat Index: 46°   Visibility: 10mi
Dew Point: 24°   Wind: 0mph
Humidity: 42%   Direction: NA
Pressure: 30.35"   Gusts: NA
Location:  37.15°N, 109.86°W
Report Text: KBDG 260215Z AUTO 00000KT 10SM CLR 08/M04 A3035 RMK AO1 T00771045
Loading
Personal Weather Stations






























Interactive Weather Map New forecast layout! Learn more

10-Day Weather Forecast

Advertisements
Track Severe Weather on mobile